Time;durP1;ratioP1;P1;durP2;ratioP2;P2;SDS_P1;SDS_P2;PMS_P1;PMS_P2;Temp;Humidity;BMP_temperature;BMP_pressure;BME280_temperature;BME280_humidity;BME280_pressure;Samples;Min_cycle;Max_cycle;Signal;HPM_P1;HPM_P2
2021/06/20 00:01:41;;;;;;;11.40;4.50;;;17.20;99.90;;;;;;5093320;28;20213;-62
2021/06/20 00:04:07;;;;;;;7.95;4.30;;;17.20;99.90;;;;;;5093386;28;20192;-62
2021/06/20 00:06:38;;;;;;;8.98;4.40;;;17.20;99.90;;;;;;5093571;28;20184;-62
2021/06/20 00:09:13;;;;;;;15.00;4.40;;;17.20;99.90;;;;;;5091040;28;20201;-60
2021/06/20 00:11:40;;;;;;;13.02;4.72;;;17.10;99.90;;;;;;5071341;28;20204;-61
2021/06/20 00:14:07;;;;;;;17.60;4.68;;;17.10;99.90;;;;;;5088307;28;20652;-61
2021/06/20 00:16:34;;;;;;;11.60;4.15;;;17.10;99.90;;;;;;5092653;28;20185;-62
2021/06/20 00:19:00;;;;;;;10.55;4.85;;;17.10;99.90;;;;;;5092022;28;20343;-63
2021/06/20 00:21:26;;;;;;;10.75;5.13;;;17.00;99.90;;;;;;5092189;28;20201;-62
2021/06/20 00:23:53;;;;;;;17.08;4.63;;;17.00;99.90;;;;;;5092303;28;20169;-62
2021/06/20 00:26:19;;;;;;;14.80;4.70;;;16.90;99.90;;;;;;5092982;28;20173;-62
2021/06/20 00:28:45;;;;;;;11.73;5.35;;;16.90;99.90;;;;;;5092541;28;20213;-61
2021/06/20 00:31:11;;;;;;;8.13;4.68;;;16.80;99.90;;;;;;5092793;28;20185;-63
2021/06/20 00:33:38;;;;;;;9.25;5.35;;;16.80;99.90;;;;;;5091504;28;20185;-61
2021/06/20 00:36:05;;;;;;;15.20;5.50;;;16.70;99.90;;;;;;5092172;28;20213;-62
2021/06/20 00:38:31;;;;;;;10.27;5.05;;;16.70;99.90;;;;;;5092756;28;20185;-62
2021/06/20 00:40:57;;;;;;;10.18;5.20;;;16.80;99.90;;;;;;5092347;28;20574;-62
2021/06/20 00:43:23;;;;;;;15.38;5.18;;;16.70;99.90;;;;;;5092201;28;20189;-62
2021/06/20 00:45:49;;;;;;;13.20;5.95;;;16.60;99.90;;;;;;5092598;28;20536;-61
2021/06/20 00:48:15;;;;;;;16.17;5.30;;;16.70;99.90;;;;;;5091503;28;20185;-62
2021/06/20 00:50:41;;;;;;;11.98;4.93;;;16.70;99.90;;;;;;5092715;28;20185;-62
2021/06/20 00:53:09;;;;;;;13.82;6.13;;;16.60;99.90;;;;;;5090940;28;20185;-59
2021/06/20 00:55:37;;;;;;;15.15;4.70;;;16.60;99.90;;;;;;5092030;28;20514;-62
2021/06/20 00:58:04;;;;;;;12.68;5.00;;;16.60;99.90;;;;;;5092550;28;20180;-61
2021/06/20 01:00:33;;;;;;;13.52;4.90;;;16.60;99.90;;;;;;5091477;28;20189;-63
2021/06/20 01:02:59;;;;;;;9.23;4.72;;;16.50;99.90;;;;;;5092074;28;20177;-62
2021/06/20 01:05:26;;;;;;;15.52;6.57;;;16.50;99.90;;;;;;5091648;28;20614;-61
2021/06/20 01:07:52;;;;;;;16.70;5.88;;;16.60;99.90;;;;;;5091900;28;20192;-62
2021/06/20 01:10:20;;;;;;;12.60;5.20;;;16.50;99.90;;;;;;5092594;28;20165;-62
2021/06/20 01:12:46;;;;;;;23.13;5.97;;;16.50;99.90;;;;;;5091676;28;20196;-61
2021/06/20 01:15:13;;;;;;;11.50;5.53;;;16.60;99.90;;;;;;5092529;28;20178;-62
2021/06/20 01:17:40;;;;;;;15.95;6.05;;;16.60;99.90;;;;;;5090955;28;20517;-63
2021/06/20 01:20:08;;;;;;;8.05;5.57;;;16.60;99.90;;;;;;5090435;28;20656;-62
2021/06/20 01:22:34;;;;;;;12.10;5.13;;;16.60;99.90;;;;;;5091972;28;20217;-61
2021/06/20 01:25:03;;;;;;;17.92;5.65;;;16.60;99.90;;;;;;5086833;28;20653;-61
2021/06/20 01:27:35;;;;;;;11.63;4.90;;;16.70;99.90;;;;;;5090379;28;20220;-61
2021/06/20 01:30:04;;;;;;;13.48;5.57;;;16.70;99.90;;;;;;5090033;28;20657;-61
2021/06/20 01:32:30;;;;;;;16.38;6.18;;;16.70;99.90;;;;;;5092323;28;20533;-62
2021/06/20 01:34:56;;;;;;;13.88;5.88;;;16.60;99.90;;;;;;5090652;28;20177;-60
2021/06/20 01:37:23;;;;;;;17.67;6.05;;;16.50;99.90;;;;;;5092422;28;20189;-62
2021/06/20 01:39:49;;;;;;;14.27;5.57;;;16.50;99.90;;;;;;5091899;28;20177;-62
2021/06/20 01:42:15;;;;;;;16.63;6.10;;;16.50;99.90;;;;;;5091916;28;20654;-60
2021/06/20 01:44:52;;;;;;;18.20;6.55;;;16.50;99.90;;;;;;5091681;28;20185;-62
2021/06/20 01:47:18;;;;;;;13.05;5.55;;;16.50;99.90;;;;;;5074527;28;20168;-60
2021/06/20 01:49:44;;;;;;;11.73;6.10;;;16.50;99.90;;;;;;5091568;28;20177;-62
2021/06/20 01:52:10;;;;;;;10.07;5.70;;;16.40;99.90;;;;;;5091932;28;20189;-61
2021/06/20 01:54:49;;;;;;;9.75;5.53;;;16.30;99.90;;;;;;5092440;28;20173;-61
2021/06/20 01:57:31;;;;;;;18.60;6.03;;;16.30;99.90;;;;;;5091113;28;20169;-61
2021/06/20 01:59:59;;;;;;;12.30;5.20;;;16.30;99.90;;;;;;5090550;28;20165;-59
2021/06/20 02:02:26;;;;;;;14.07;6.00;;;16.30;99.90;;;;;;5091413;28;20680;-61
2021/06/20 02:04:54;;;;;;;14.88;4.80;;;16.30;99.90;;;;;;5090402;28;20181;-63
2021/06/20 02:07:27;;;;;;;12.80;4.45;;;16.30;99.90;;;;;;5091790;28;20653;-62
2021/06/20 02:09:54;;;;;;;9.88;4.60;;;16.40;99.90;;;;;;5091028;28;20551;-62
2021/06/20 02:12:21;;;;;;;13.85;4.28;;;16.40;99.90;;;;;;5093723;28;20189;-62
2021/06/20 02:14:47;;;;;;;9.18;4.53;;;16.30;99.90;;;;;;5095739;28;20169;-60
2021/06/20 02:17:25;;;;;;;10.63;4.10;;;16.40;99.90;;;;;;5076285;28;20204;-62
2021/06/20 02:20:05;;;;;;;10.63;4.63;;;16.40;99.90;;;;;;5093637;28;20161;-63
2021/06/20 02:22:31;;;;;;;16.23;4.82;;;16.30;99.90;;;;;;5095033;28;20719;-63
2021/06/20 02:24:57;;;;;;;7.65;4.65;;;16.30;99.90;;;;;;5095315;28;20185;-62
2021/06/20 02:27:23;;;;;;;15.05;6.00;;;16.30;99.90;;;;;;5095286;28;21088;-61
2021/06/20 02:29:52;;;;;;;14.82;5.60;;;16.30;99.90;;;;;;5095059;28;20189;-62
2021/06/20 02:32:18;;;;;;;13.05;5.30;;;16.30;99.90;;;;;;5092880;28;20173;-61
2021/06/20 02:34:44;;;;;;;11.70;5.32;;;16.30;99.90;;;;;;5095511;28;20181;-62
2021/06/20 02:37:11;;;;;;;14.77;5.63;;;16.30;99.90;;;;;;5095311;28;20220;-62
2021/06/20 02:39:37;;;;;;;13.30;5.15;;;16.30;99.90;;;;;;5093293;28;20177;-62
2021/06/20 02:42:04;;;;;;;8.77;5.13;;;16.30;99.90;;;;;;5090676;28;20205;-60
2021/06/20 02:44:30;;;;;;;16.70;6.00;;;16.30;99.90;;;;;;5093269;28;20529;-61
2021/06/20 02:47:01;;;;;;;16.42;5.82;;;16.30;99.90;;;;;;5093919;28;20540;-60
2021/06/20 02:49:28;;;;;;;14.98;7.05;;;16.30;99.90;;;;;;5086210;28;20185;-63
2021/06/20 02:51:54;;;;;;;13.60;5.75;;;16.30;99.90;;;;;;5094925;28;20177;-62
2021/06/20 02:54:20;;;;;;;12.35;5.55;;;16.30;99.90;;;;;;5094877;28;20622;-63
2021/06/20 02:56:46;;;;;;;16.83;6.05;;;16.30;99.90;;;;;;5094627;28;20181;-61
2021/06/20 02:59:13;;;;;;;15.38;6.07;;;16.30;99.90;;;;;;5095037;28;20206;-60
2021/06/20 03:01:39;;;;;;;19.63;6.28;;;16.30;99.90;;;;;;5094193;28;20576;-59
2021/06/20 03:04:06;;;;;;;17.10;6.10;;;16.30;99.90;;;;;;5093421;28;20509;-60
2021/06/20 03:06:32;;;;;;;14.43;6.75;;;16.30;99.90;;;;;;5094531;28;20170;-61
2021/06/20 03:08:58;;;;;;;15.63;6.05;;;16.20;99.90;;;;;;5094115;28;20162;-62
2021/06/20 03:11:24;;;;;;;12.85;6.20;;;16.20;99.90;;;;;;5094555;28;20181;-63
2021/06/20 03:13:50;;;;;;;12.05;6.80;;;16.20;99.90;;;;;;5093477;28;20173;-63
2021/06/20 03:16:18;;;;;;;19.42;6.68;;;16.30;99.90;;;;;;5093104;28;20524;-62
2021/06/20 03:18:44;;;;;;;18.38;5.63;;;16.30;99.90;;;;;;5093473;28;20218;-62
2021/06/20 03:21:10;;;;;;;18.70;6.90;;;16.30;99.90;;;;;;5094044;28;20177;-60
2021/06/20 03:23:37;;;;;;;20.25;6.55;;;16.30;99.90;;;;;;5094377;28;20626;-62
2021/06/20 03:26:03;;;;;;;15.40;7.07;;;16.30;99.90;;;;;;5093111;28;20177;-62
2021/06/20 03:28:29;;;;;;;13.10;6.93;;;16.30;99.90;;;;;;5093919;28;20193;-62
2021/06/20 03:30:55;;;;;;;13.15;6.82;;;16.30;99.90;;;;;;5093823;28;20184;-61
2021/06/20 03:33:21;;;;;;;16.70;6.97;;;16.30;99.90;;;;;;5094322;28;20173;-60
2021/06/20 03:35:48;;;;;;;20.15;7.55;;;16.20;99.90;;;;;;5093640;28;20226;-61
2021/06/20 03:38:14;;;;;;;18.60;6.45;;;16.20;99.90;;;;;;5072054;28;20182;-61
2021/06/20 03:40:40;;;;;;;14.20;6.05;;;16.20;99.90;;;;;;5090770;28;20212;-61
2021/06/20 03:43:06;;;;;;;12.63;6.18;;;16.30;99.90;;;;;;5092357;28;20197;-62
2021/06/20 03:45:32;;;;;;;15.18;7.40;;;16.30;99.90;;;;;;5092971;28;20192;-61
2021/06/20 03:47:58;;;;;;;16.25;5.82;;;16.30;99.90;;;;;;5092961;28;20185;-60
2021/06/20 03:50:25;;;;;;;16.50;6.13;;;16.30;99.90;;;;;;5091953;28;20180;-61
2021/06/20 03:52:51;;;;;;;16.92;6.30;;;16.30;99.90;;;;;;5092893;28;20183;-60
2021/06/20 03:55:17;;;;;;;14.60;6.60;;;16.40;99.90;;;;;;5091875;28;20188;-60
2021/06/20 03:57:43;;;;;;;13.15;6.53;;;16.30;99.90;;;;;;5093389;28;20190;-61
2021/06/20 04:00:10;;;;;;;13.85;6.22;;;16.30;99.90;;;;;;5092904;28;20537;-59
2021/06/20 04:02:36;;;;;;;16.10;6.55;;;16.30;99.90;;;;;;5092838;28;20598;-60
2021/06/20 04:05:03;;;;;;;16.27;7.32;;;16.40;99.90;;;;;;5093106;28;20193;-62
2021/06/20 04:07:30;;;;;;;21.58;8.02;;;16.40;99.90;;;;;;5093306;28;20180;-61
2021/06/20 04:09:56;;;;;;;21.50;7.38;;;16.40;99.90;;;;;;5092133;28;20625;-60
2021/06/20 04:12:22;;;;;;;17.77;8.38;;;16.30;99.90;;;;;;5092369;28;20185;-60
2021/06/20 04:14:48;;;;;;;14.27;7.43;;;16.40;99.90;;;;;;5092194;28;20181;-61
2021/06/20 04:17:14;;;;;;;16.95;7.88;;;16.40;99.90;;;;;;5093518;28;20181;-60
2021/06/20 04:19:40;;;;;;;17.65;6.60;;;16.30;99.90;;;;;;5085424;28;20182;-61
2021/06/20 04:22:06;;;;;;;13.80;6.72;;;16.30;99.90;;;;;;5092597;28;20221;-61
2021/06/20 04:24:32;;;;;;;17.52;7.07;;;16.30;99.90;;;;;;5093038;28;20177;-61
2021/06/20 04:26:58;;;;;;;16.42;6.82;;;16.30;99.90;;;;;;5092913;28;20208;-62
2021/06/20 04:29:25;;;;;;;15.95;6.78;;;16.30;99.90;;;;;;5092199;28;20180;-61
2021/06/20 04:31:51;;;;;;;23.30;8.40;;;16.20;99.90;;;;;;5091395;28;20165;-62
2021/06/20 04:34:17;;;;;;;20.00;8.57;;;16.30;99.90;;;;;;5092405;28;20177;-61
2021/06/20 04:36:43;;;;;;;18.50;7.70;;;16.30;99.90;;;;;;5093080;28;20279;-61
2021/06/20 04:39:09;;;;;;;18.60;7.55;;;16.20;99.90;;;;;;5091368;28;20184;-61
2021/06/20 04:41:36;;;;;;;19.77;7.90;;;16.30;99.90;;;;;;5092245;28;20676;-61
2021/06/20 04:44:04;;;;;;;25.83;8.48;;;16.30;99.90;;;;;;5092762;28;20185;-61
2021/06/20 04:46:34;;;;;;;18.90;9.00;;;16.20;99.90;;;;;;5092697;28;20180;-62
2021/06/20 04:49:06;;;;;;;24.92;8.30;;;16.10;99.90;;;;;;5092792;28;20510;-60
2021/06/20 04:51:40;;;;;;;21.95;8.23;;;16.10;99.90;;;;;;5074598;28;20193;-62
2021/06/20 04:54:10;;;;;;;14.85;7.50;;;16.10;99.90;;;;;;5092666;28;20632;-60
2021/06/20 04:56:37;;;;;;;16.70;7.97;;;16.20;99.90;;;;;;5092840;28;20181;-60
2021/06/20 04:59:04;;;;;;;14.73;7.97;;;16.20;99.90;;;;;;5092113;28;20172;-61
2021/06/20 05:01:30;;;;;;;17.40;7.65;;;16.20;99.90;;;;;;5091704;28;20174;-60
2021/06/20 05:03:56;;;;;;;18.00;8.18;;;16.20;99.90;;;;;;5074160;28;20186;-62
2021/06/20 05:06:22;;;;;;;25.45;8.07;;;16.30;99.90;;;;;;5084884;28;20684;-59
2021/06/20 05:08:49;;;;;;;20.38;8.02;;;16.20;99.90;;;;;;5087574;28;20176;-60
2021/06/20 05:11:15;;;;;;;21.20;8.18;;;16.20;99.90;;;;;;5091605;28;20165;-61
2021/06/20 05:13:41;;;;;;;24.48;8.00;;;16.20;99.90;;;;;;5091999;28;20181;-62
2021/06/20 05:16:07;;;;;;;26.55;9.10;;;16.30;99.90;;;;;;5091654;28;20633;-62
2021/06/20 05:18:34;;;;;;;20.92;7.75;;;16.30;99.90;;;;;;5092437;28;20196;-60
2021/06/20 05:21:00;;;;;;;18.33;8.23;;;16.30;99.90;;;;;;5091234;28;20676;-62
2021/06/20 05:23:26;;;;;;;20.90;7.28;;;16.30;99.90;;;;;;5073807;28;20689;-60
2021/06/20 05:25:52;;;;;;;21.23;8.10;;;16.20;99.90;;;;;;5091086;28;20192;-60
2021/06/20 05:28:19;;;;;;;18.42;8.63;;;16.10;99.90;;;;;;5091910;28;20226;-61
2021/06/20 05:30:46;;;;;;;20.80;9.07;;;16.10;99.90;;;;;;5091767;28;20184;-61
2021/06/20 05:33:16;;;;;;;21.98;8.13;;;16.00;99.90;;;;;;5089948;28;20196;-61
2021/06/20 05:35:42;;;;;;;18.35;7.57;;;16.10;99.90;;;;;;5092248;28;20217;-61
2021/06/20 05:38:08;;;;;;;18.60;7.30;;;16.10;99.90;;;;;;5091248;28;20177;-60
2021/06/20 05:40:35;;;;;;;14.35;7.53;;;16.20;99.90;;;;;;5092725;28;20173;-61
2021/06/20 05:43:01;;;;;;;18.05;8.23;;;16.20;99.90;;;;;;5090262;28;20200;-61
2021/06/20 05:45:27;;;;;;;13.38;7.15;;;16.30;99.90;;;;;;5090805;28;20622;-60
2021/06/20 05:47:53;;;;;;;16.73;7.30;;;16.40;99.90;;;;;;5094288;28;20536;-62
2021/06/20 05:50:20;;;;;;;18.70;8.15;;;16.40;99.90;;;;;;5096647;28;20188;-61
2021/06/20 05:52:46;;;;;;;17.20;7.85;;;16.40;99.90;;;;;;5096747;28;20525;-61
2021/06/20 05:55:12;;;;;;;15.57;7.45;;;16.30;99.90;;;;;;5077112;28;20185;-60
2021/06/20 05:57:38;;;;;;;17.65;7.80;;;16.30;99.90;;;;;;5096485;28;20184;-59
2021/06/20 06:00:06;;;;;;;16.85;7.50;;;16.40;99.90;;;;;;5095491;28;20192;-61
2021/06/20 06:02:32;;;;;;;13.38;7.13;;;16.40;99.90;;;;;;5094396;28;20677;-62
2021/06/20 06:04:58;;;;;;;16.17;7.55;;;16.50;99.90;;;;;;5095991;28;20193;-61
2021/06/20 06:07:24;;;;;;;15.10;6.70;;;16.50;99.90;;;;;;5095161;28;20177;-60
2021/06/20 06:09:50;;;;;;;13.88;7.15;;;16.50;99.90;;;;;;5095381;28;20538;-61
2021/06/20 06:12:19;;;;;;;19.52;7.43;;;16.50;99.90;;;;;;5096121;28;20184;-60
2021/06/20 06:14:45;;;;;;;17.48;7.55;;;16.50;99.90;;;;;;5096222;28;20201;-61
2021/06/20 06:17:11;;;;;;;13.52;7.60;;;16.60;99.90;;;;;;5094944;28;20177;-60
2021/06/20 06:19:37;;;;;;;14.38;7.18;;;16.70;99.90;;;;;;5095228;28;20185;-61
2021/06/20 06:22:03;;;;;;;19.92;7.78;;;16.60;99.90;;;;;;5094955;28;20228;-61
2021/06/20 06:24:29;;;;;;;25.45;9.60;;;16.60;99.90;;;;;;5094585;28;20178;-60
2021/06/20 06:26:55;;;;;;;15.63;7.95;;;16.60;99.90;;;;;;5094656;28;20211;-60
2021/06/20 06:29:21;;;;;;;18.65;7.25;;;16.60;99.90;;;;;;5094553;28;20180;-60
2021/06/20 06:31:47;;;;;;;11.55;7.00;;;16.70;99.90;;;;;;5094271;28;20177;-61
2021/06/20 06:34:14;;;;;;;20.45;7.85;;;16.70;99.90;;;;;;5095567;28;20181;-61
2021/06/20 06:36:40;;;;;;;22.42;7.75;;;16.70;99.90;;;;;;5095260;28;20248;-61
2021/06/20 06:39:06;;;;;;;16.58;8.35;;;16.80;99.90;;;;;;5093800;28;20173;-61
2021/06/20 06:41:32;;;;;;;15.43;7.40;;;16.90;99.90;;;;;;5095774;28;20169;-61
2021/06/20 06:43:58;;;;;;;19.60;7.47;;;17.00;99.90;;;;;;5095476;28;20216;-61
2021/06/20 06:46:24;;;;;;;13.93;7.25;;;17.00;99.90;;;;;;5095230;28;20212;-61
2021/06/20 06:48:51;;;;;;;13.73;7.50;;;17.10;99.90;;;;;;5094941;28;20177;-59
2021/06/20 06:51:17;;;;;;;16.55;7.15;;;17.20;99.90;;;;;;5093917;28;21067;-61
2021/06/20 06:53:43;;;;;;;15.23;7.15;;;17.30;99.90;;;;;;5093647;28;20190;-60
2021/06/20 06:56:09;;;;;;;12.07;7.18;;;17.30;99.90;;;;;;5094383;28;20193;-60
2021/06/20 06:58:35;;;;;;;14.50;6.93;;;17.40;99.90;;;;;;5093982;28;20181;-61
2021/06/20 07:01:02;;;;;;;12.13;6.47;;;17.30;99.90;;;;;;5074555;28;20199;-61
2021/06/20 07:03:28;;;;;;;11.75;6.70;;;17.30;99.90;;;;;;5093618;28;20208;-60
2021/06/20 07:05:54;;;;;;;18.50;7.03;;;17.40;99.90;;;;;;5094538;28;20664;-61
2021/06/20 07:08:20;;;;;;;12.35;7.15;;;17.60;99.90;;;;;;5093816;28;20185;-61
2021/06/20 07:10:46;;;;;;;15.30;7.03;;;17.60;99.90;;;;;;5094145;28;21702;-61
2021/06/20 07:13:12;;;;;;;12.65;6.10;;;17.60;99.90;;;;;;5093819;28;20200;-60
2021/06/20 07:15:38;;;;;;;11.30;6.55;;;17.70;99.90;;;;;;5094090;28;20660;-60
2021/06/20 07:18:04;;;;;;;16.50;6.65;;;17.80;99.90;;;;;;5094533;28;20189;-61
2021/06/20 07:20:31;;;;;;;12.52;6.45;;;18.00;99.90;;;;;;5093926;28;20634;-61
2021/06/20 07:22:57;;;;;;;12.10;6.63;;;18.00;99.90;;;;;;5094175;28;20654;-61
2021/06/20 07:25:23;;;;;;;11.05;6.80;;;18.20;99.90;;;;;;5093475;28;20177;-61
2021/06/20 07:27:49;;;;;;;14.82;7.22;;;18.20;99.90;;;;;;5093809;28;20204;-59
2021/06/20 07:30:17;;;;;;;14.68;6.15;;;18.30;99.90;;;;;;5087841;28;20521;-60
2021/06/20 07:32:44;;;;;;;13.15;6.38;;;18.30;99.90;;;;;;5075489;28;20204;-60
2021/06/20 07:35:10;;;;;;;13.70;6.80;;;18.50;99.90;;;;;;5092158;28;20180;-60
2021/06/20 07:37:36;;;;;;;15.52;6.15;;;18.60;99.90;;;;;;5074007;28;20197;-60
2021/06/20 07:40:04;;;;;;;12.93;6.35;;;18.80;99.90;;;;;;5093944;28;20177;-60
2021/06/20 07:42:30;;;;;;;13.80;5.93;;;19.00;99.90;;;;;;5092765;28;20232;-62
2021/06/20 07:44:56;;;;;;;13.35;5.85;;;19.20;99.90;;;;;;5091831;28;20538;-61
2021/06/20 07:47:22;;;;;;;11.05;5.47;;;19.40;99.90;;;;;;5093276;28;20184;-61
2021/06/20 07:49:49;;;;;;;10.55;5.97;;;19.10;99.90;;;;;;5092987;28;20176;-60
2021/06/20 07:52:15;;;;;;;11.93;5.55;;;19.10;99.90;;;;;;5091845;28;20200;-61
2021/06/20 07:54:49;;;;;;;10.95;4.93;;;19.40;99.90;;;;;;5091959;28;20645;-59
2021/06/20 07:57:18;;;;;;;9.35;5.18;;;19.50;99.90;;;;;;5093138;28;20170;-59
2021/06/20 07:59:45;;;;;;;9.10;5.40;;;19.40;99.90;;;;;;5093120;28;20177;-60
2021/06/20 08:02:12;;;;;;;9.18;5.57;;;19.70;99.90;;;;;;5091672;28;20165;-60
2021/06/20 08:04:41;;;;;;;13.82;5.85;;;19.90;99.90;;;;;;5093456;28;20189;-59
2021/06/20 08:07:07;;;;;;;7.60;4.88;;;20.10;99.90;;;;;;5093203;28;20543;-59
2021/06/20 08:09:34;;;;;;;8.80;4.90;;;20.10;99.90;;;;;;5091851;28;20181;-59
2021/06/20 08:12:00;;;;;;;11.15;5.07;;;20.40;99.90;;;;;;5092911;28;20173;-62
2021/06/20 08:14:26;;;;;;;11.23;4.60;;;20.50;99.90;;;;;;5092795;28;20184;-60
2021/06/20 08:16:52;;;;;;;7.25;4.25;;;20.80;99.90;;;;;;5092830;28;20252;-61
2021/06/20 08:19:19;;;;;;;7.40;4.15;;;20.90;99.90;;;;;;5092903;28;20629;-60
2021/06/20 08:21:45;;;;;;;12.32;4.68;;;21.20;99.90;;;;;;5092240;28;20204;-61
2021/06/20 08:24:12;;;;;;;8.90;4.15;;;21.30;99.90;;;;;;5092717;28;20212;-60
2021/06/20 08:26:38;;;;;;;7.13;3.55;;;21.50;99.90;;;;;;5092954;28;20204;-62
2021/06/20 08:29:04;;;;;;;8.02;4.00;;;21.50;99.90;;;;;;5092133;28;20196;-62
2021/06/20 08:31:31;;;;;;;9.82;4.32;;;22.00;99.90;;;;;;5092904;28;20177;-62
2021/06/20 08:33:57;;;;;;;11.50;3.92;;;22.40;99.90;;;;;;5070151;28;20534;-61
2021/06/20 08:36:24;;;;;;;7.13;3.80;;;22.30;99.90;;;;;;5091950;28;20384;-61
2021/06/20 08:38:50;;;;;;;8.30;3.45;;;22.90;99.90;;;;;;5093284;28;20193;-61
2021/06/20 08:41:16;;;;;;;6.10;3.67;;;23.60;99.90;;;;;;5092719;28;20636;-62
2021/06/20 08:43:43;;;;;;;7.40;3.55;;;24.30;98.40;;;;;;5093017;28;20205;-63
2021/06/20 08:46:10;;;;;;;6.90;3.38;;;24.40;96.10;;;;;;5093023;28;20610;-62
2021/06/20 08:48:37;;;;;;;6.40;2.97;;;24.20;95.60;;;;;;5093094;28;20208;-61
2021/06/20 08:51:03;;;;;;;7.15;3.05;;;24.20;96.50;;;;;;5091529;28;20173;-61
2021/06/20 08:53:29;;;;;;;10.25;3.30;;;24.70;96.40;;;;;;5093326;28;20177;-63
2021/06/20 08:55:55;;;;;;;5.45;2.92;;;24.90;95.10;;;;;;5092661;28;20184;-62
2021/06/20 08:58:25;;;;;;;6.30;2.90;;;24.80;95.20;;;;;;5091937;28;20551;-62
2021/06/20 09:00:51;;;;;;;7.55;3.03;;;24.60;94.30;;;;;;5090358;28;20197;-62
2021/06/20 09:03:17;;;;;;;8.20;3.20;;;24.70;94.50;;;;;;5092324;28;20668;-65
2021/06/20 09:06:17;;;;;;;5.30;3.00;;;25.00;95.30;;;;;;5092961;28;20613;-63
2021/06/20 09:08:50;;;;;;;7.72;3.00;;;25.70;93.00;;;;;;5041873;28;20186;-63
2021/06/20 09:11:29;;;;;;;5.70;3.00;;;25.80;91.50;;;;;;5092573;28;20177;-61
2021/06/20 09:14:12;;;;;;;5.38;2.95;;;25.80;92.70;;;;;;5091803;28;20177;-63
2021/06/20 09:16:45;;;;;;;5.18;2.85;;;25.40;91.90;;;;;;5090937;28;20166;-63
2021/06/20 09:19:11;;;;;;;7.47;3.15;;;25.40;92.70;;;;;;5091925;28;20173;-62
2021/06/20 09:21:37;;;;;;;9.90;2.70;;;25.90;91.80;;;;;;5091818;28;20172;-62
2021/06/20 09:24:04;;;;;;;5.30;2.70;;;26.50;91.40;;;;;;5090945;28;20209;-64
2021/06/20 09:26:38;;;;;;;6.55;2.67;;;26.40;88.50;;;;;;5090545;28;20200;-63
2021/06/20 09:29:05;;;;;;;4.65;2.22;;;26.40;90.90;;;;;;5091919;28;20172;-63
2021/06/20 09:31:49;;;;;;;4.68;2.22;;;26.70;89.30;;;;;;5092532;28;20172;-62
2021/06/20 09:34:15;;;;;;;3.35;2.03;;;26.70;85.20;;;;;;5091254;28;20180;-63
2021/06/20 09:36:41;;;;;;;4.90;2.15;;;26.50;87.20;;;;;;5092390;28;20209;-63
2021/06/20 09:39:24;;;;;;;5.10;2.80;;;26.40;88.10;;;;;;5091707;28;20189;-62
2021/06/20 09:42:10;;;;;;;4.70;2.50;;;26.20;86.00;;;;;;5092737;28;20164;-61
2021/06/20 09:44:40;;;;;;;6.72;2.70;;;26.20;87.70;;;;;;5092603;28;20204;-62
2021/06/20 09:47:08;;;;;;;4.90;2.60;;;26.10;89.30;;;;;;5092625;28;20625;-63
2021/06/20 09:49:35;;;;;;;5.97;2.40;;;26.10;89.00;;;;;;5091318;28;20193;-63
2021/06/20 09:52:02;;;;;;;7.20;2.38;;;25.90;87.70;;;;;;5092631;28;20162;-63
2021/06/20 09:54:30;;;;;;;3.67;2.58;;;25.80;87.50;;;;;;5092358;28;20189;-62
2021/06/20 09:56:56;;;;;;;4.82;2.45;;;25.50;88.50;;;;;;5091426;28;20165;-62
2021/06/20 09:59:32;;;;;;;3.78;2.42;;;25.30;89.40;;;;;;5092197;28;20185;-62
2021/06/20 10:02:12;;;;;;;4.93;2.78;;;25.10;90.50;;;;;;5091360;28;20182;-62
2021/06/20 10:04:39;;;;;;;4.10;2.60;;;25.00;90.40;;;;;;5074013;28;20229;-63
2021/06/20 10:07:06;;;;;;;3.90;2.67;;;25.10;91.40;;;;;;5092415;28;20174;-61
2021/06/20 10:09:33;;;;;;;4.90;2.55;;;25.10;90.70;;;;;;5090798;28;20524;-62
2021/06/20 10:11:59;;;;;;;5.30;3.00;;;25.10;90.80;;;;;;5091239;28;20165;-62
2021/06/20 10:14:26;;;;;;;4.88;3.00;;;24.90;92.70;;;;;;5092095;28;20181;-63
2021/06/20 10:16:53;;;;;;;7.68;2.90;;;24.80;92.70;;;;;;5091263;28;20176;-62
2021/06/20 10:19:21;;;;;;;4.97;2.80;;;24.90;91.70;;;;;;5073678;28;20181;-62
2021/06/20 10:22:01;;;;;;;6.75;2.92;;;24.80;92.00;;;;;;5092044;28;20180;-62
2021/06/20 10:24:27;;;;;;;4.32;3.15;;;24.70;92.20;;;;;;5091050;28;20555;-63
2021/06/20 10:27:06;;;;;;;7.45;2.53;;;25.10;91.40;;;;;;5092269;28;20193;-63
2021/06/20 10:29:38;;;;;;;4.57;2.20;;;25.60;91.50;;;;;;5091885;28;20166;-62
2021/06/20 10:32:17;;;;;;;4.18;2.50;;;26.10;90.20;;;;;;5092229;28;20497;-61
2021/06/20 10:35:00;;;;;;;34.55;3.33;;;26.50;88.90;;;;;;5096382;28;20640;-63
2021/06/20 10:37:31;;;;;;;4.40;2.60;;;26.70;88.30;;;;;;5095632;28;20177;-61
2021/06/20 10:39:57;;;;;;;3.28;2.42;;;27.10;88.20;;;;;;5095840;28;20524;-63
2021/06/20 10:42:37;;;;;;;3.42;2.38;;;27.50;85.50;;;;;;5094765;28;20202;-63
2021/06/20 10:45:08;;;;;;;5.13;2.30;;;27.50;84.10;;;;;;5077175;28;20193;-62
2021/06/20 10:47:43;;;;;;;5.13;2.20;;;27.50;83.90;;;;;;5077623;28;20533;-62
2021/06/20 10:50:13;;;;;;;4.00;2.00;;;27.80;85.30;;;;;;5095205;28;20625;-62
2021/06/20 10:52:40;;;;;;;3.00;2.13;;;28.10;80.60;;;;;;5095858;28;20638;-62
2021/06/20 10:55:09;;;;;;;3.67;2.20;;;28.20;81.00;;;;;;5094411;28;20532;-62
2021/06/20 10:57:42;;;;;;;5.00;2.70;;;27.90;81.70;;;;;;5095185;28;20517;-62
2021/06/20 11:00:09;;;;;;;3.13;2.22;;;27.50;79.00;;;;;;5095523;28;20168;-62
2021/06/20 11:02:35;;;;;;;3.35;2.10;;;27.10;81.10;;;;;;5095234;28;20532;-62
2021/06/20 11:05:02;;;;;;;3.65;2.30;;;26.80;81.30;;;;;;5093652;28;20728;-63
2021/06/20 11:07:29;;;;;;;5.47;2.40;;;26.60;82.40;;;;;;5093711;28;20169;-62
2021/06/20 11:09:55;;;;;;;5.97;2.42;;;26.30;84.30;;;;;;5095155;28;20192;-62
2021/06/20 11:12:22;;;;;;;6.38;2.97;;;26.10;84.20;;;;;;5094903;28;20173;-61
2021/06/20 11:14:50;;;;;;;4.88;2.88;;;26.00;87.50;;;;;;5094085;28;20387;-61
2021/06/20 11:17:17;;;;;;;5.75;2.50;;;25.80;87.70;;;;;;5094275;28;20376;-62
2021/06/20 11:19:43;;;;;;;7.80;3.00;;;25.90;88.70;;;;;;5093831;28;20427;-61
2021/06/20 11:22:11;;;;;;;4.77;2.80;;;25.90;90.00;;;;;;5093908;28;20368;-61
2021/06/20 11:24:46;;;;;;;4.72;2.90;;;25.70;88.50;;;;;;5075036;28;20423;-62
2021/06/20 11:27:12;;;;;;;4.75;2.83;;;25.40;90.60;;;;;;5093785;28;20380;-61
2021/06/20 11:29:47;;;;;;;5.22;3.10;;;25.20;93.40;;;;;;5093604;28;20396;-61
2021/06/20 11:32:15;;;;;;;5.57;3.22;;;24.90;90.60;;;;;;5093480;28;20377;-61
2021/06/20 11:35:19;;;;;;;4.57;2.92;;;24.70;92.00;;;;;;5093850;28;20538;-61
2021/06/20 11:37:49;;;;;;;6.88;3.10;;;24.60;91.60;;;;;;5093073;28;20205;-61
2021/06/20 11:40:22;;;;;;;5.40;3.03;;;24.50;92.70;;;;;;5094523;28;20173;-61
2021/06/20 11:42:53;;;;;;;4.95;3.28;;;24.40;92.10;;;;;;5094643;28;20528;-63
2021/06/20 11:45:26;;;;;;;7.97;3.45;;;24.40;92.80;;;;;;5094345;28;20626;-62
2021/06/20 11:47:54;;;;;;;4.82;2.92;;;24.30;92.10;;;;;;5093260;28;20185;-62
2021/06/20 11:50:23;;;;;;;6.75;3.13;;;24.30;93.20;;;;;;5094240;28;20528;-62
2021/06/20 11:52:51;;;;;;;7.22;3.00;;;24.20;92.40;;;;;;5094481;28;20173;-61
2021/06/20 11:55:21;;;;;;;14.35;4.10;;;24.10;93.20;;;;;;5075487;28;20191;-60
2021/06/20 11:57:48;;;;;;;17.92;4.50;;;23.70;94.50;;;;;;5094442;28;20173;-62
2021/06/20 12:00:19;;;;;;;36.40;7.57;;;22.90;97.30;;;;;;5094235;28;20176;-64
2021/06/20 12:02:46;;;;;;;17.13;7.35;;;20.80;99.90;;;;;;5094283;28;20158;-65
2021/06/20 12:05:15;;;;;;;14.88;7.90;;;20.00;99.90;;;;;;5094539;28;20205;-65
2021/06/20 12:07:42;;;;;;;22.27;7.97;;;19.20;99.90;;;;;;5092706;28;20544;-64
2021/06/20 12:10:11;;;;;;;;;;;18.90;99.90;;;;;;5094606;28;20032;-64
2021/06/20 12:12:38;;;;;;;;;;;18.50;99.90;;;;;;5076278;28;20391;-64
2021/06/20 12:15:04;;;;;;;;;;;18.10;99.90;;;;;;5094436;28;19908;-64
2021/06/20 12:17:30;;;;;;;;;;;17.50;99.90;;;;;;5094141;28;19908;-64
2021/06/20 12:19:56;;;;;;;;;;;16.80;99.90;;;;;;5076168;28;19966;-63
2021/06/20 12:22:22;;;;;;;;;;;16.50;99.90;;;;;;5094200;28;19904;-63
2021/06/20 12:24:53;;;;;;;43.80;19.05;;;16.30;99.90;;;;;;5092650;28;20454;-65
2021/06/20 12:27:28;;;;;;;26.77;12.75;;;16.20;99.90;;;;;;5092827;28;20202;-63
2021/06/20 12:29:54;;;;;;;46.80;18.08;;;16.10;99.90;;;;;;5093860;28;20168;-61
2021/06/20 12:32:21;;;;;;;48.75;19.27;;;16.20;99.90;;;;;;5058853;28;20172;-63
2021/06/20 12:34:47;;;;;;;48.33;22.25;;;16.30;99.90;;;;;;5093994;28;20178;-62
2021/06/20 12:37:14;;;;;;;45.65;21.65;;;16.50;99.90;;;;;;5093446;28;20212;-63
2021/06/20 12:39:44;;;;;;;51.05;20.80;;;16.60;99.90;;;;;;5093152;28;20540;-64
2021/06/20 12:42:11;;;;;;;54.00;20.13;;;16.60;99.90;;;;;;5075661;28;20193;-64
2021/06/20 12:44:45;;;;;;;60.42;23.70;;;16.50;99.90;;;;;;5074969;28;20224;-66